createdAt,value
2017-09-27T00:00:48.357Z,13.33
2017-09-27T00:01:48.545Z,13.27
2017-09-27T00:02:48.380Z,13.35
2017-09-27T00:03:48.556Z,13.30
2017-09-27T00:04:48.405Z,13.22
2017-09-27T00:05:48.569Z,13.31
2017-09-27T00:06:48.424Z,13.28
2017-09-27T00:07:48.582Z,13.31
2017-09-27T00:08:48.447Z,13.33
2017-09-27T00:09:48.598Z,13.35
2017-09-27T00:10:48.469Z,13.28
2017-09-27T00:11:48.613Z,13.27
2017-09-27T00:12:48.495Z,13.35
2017-09-27T00:13:48.626Z,13.42
2017-09-27T00:14:48.515Z,13.28
2017-09-27T00:15:48.637Z,13.28
2017-09-27T00:16:48.540Z,13.33
2017-09-27T00:17:48.657Z,13.27
2017-09-27T00:18:48.561Z,13.35
2017-09-27T00:19:48.666Z,13.30
2017-09-27T00:20:48.607Z,13.30
2017-09-27T00:21:48.687Z,13.30
2017-09-27T00:22:48.610Z,13.31
2017-09-27T00:23:48.793Z,13.27
2017-09-27T00:24:48.626Z,13.31
2017-09-27T00:25:48.636Z,13.30
2017-09-27T00:26:48.650Z,13.30
2017-09-27T00:27:48.665Z,13.35
2017-09-27T00:28:48.676Z,13.30
2017-09-27T00:29:48.682Z,13.30
2017-09-27T00:30:49.865Z,13.30
2017-09-27T00:31:48.704Z,13.28
2017-09-27T00:32:48.858Z,13.30
2017-09-27T00:33:48.728Z,13.31
2017-09-27T00:34:49.892Z,13.31
2017-09-27T00:35:48.751Z,13.30
2017-09-27T00:36:48.769Z,13.28
2017-09-27T00:37:48.770Z,13.25
2017-09-27T00:38:48.787Z,13.30
2017-09-27T00:39:48.804Z,13.30
2017-09-27T00:40:48.809Z,13.30
2017-09-27T00:41:48.814Z,13.28
2017-09-27T00:42:48.833Z,13.35
2017-09-27T00:43:48.840Z,13.30
2017-09-27T00:44:48.853Z,13.38
2017-09-27T00:45:48.861Z,13.27
2017-09-27T00:46:48.872Z,13.35
2017-09-27T00:47:48.882Z,13.30
2017-09-27T00:48:48.897Z,13.28
2017-09-27T00:49:48.905Z,13.30
2017-09-27T00:50:48.920Z,13.31
2017-09-27T00:51:48.931Z,13.30
2017-09-27T00:52:48.939Z,13.33
2017-09-27T00:53:48.954Z,13.25
2017-09-27T00:54:48.963Z,13.23
2017-09-27T00:55:48.976Z,13.25
2017-09-27T00:56:48.987Z,13.27
2017-09-27T00:57:49.001Z,13.25
2017-09-27T00:58:49.007Z,13.27
2017-09-27T00:59:49.017Z,13.27
2017-09-27T01:00:49.030Z,13.27
2017-09-27T01:01:49.037Z,13.22
2017-09-27T01:02:49.053Z,13.18
2017-09-27T01:03:49.068Z,13.15
2017-09-27T01:04:49.074Z,13.13
2017-09-27T01:05:49.083Z,13.18
2017-09-27T01:06:49.095Z,13.20
2017-09-27T01:07:49.106Z,13.11
2017-09-27T01:08:49.117Z,13.13
2017-09-27T01:09:49.127Z,13.12
2017-09-27T01:10:49.144Z,13.11
2017-09-27T01:11:49.151Z,13.11
2017-09-27T01:12:49.166Z,13.16
2017-09-27T01:13:49.168Z,13.12
2017-09-27T01:14:49.182Z,13.15
2017-09-27T01:15:49.193Z,13.11
2017-09-27T01:16:49.360Z,13.05
2017-09-27T01:17:49.222Z,13.12
2017-09-27T01:18:49.371Z,13.15
2017-09-27T01:19:49.242Z,13.03
2017-09-27T01:20:49.394Z,13.09
2017-09-27T01:21:49.259Z,13.12
2017-09-27T01:22:49.397Z,13.16
2017-09-27T01:23:49.284Z,13.03
2017-09-27T01:24:50.437Z,13.09
2017-09-27T01:25:49.305Z,13.00
2017-09-27T01:26:49.433Z,13.04
2017-09-27T01:27:49.330Z,13.16
2017-09-27T01:28:50.466Z,13.09
2017-09-27T01:29:49.356Z,13.08
2017-09-27T01:30:49.560Z,13.09
2017-09-27T01:31:49.371Z,13.03
2017-09-27T01:32:49.573Z,13.03
2017-09-27T01:33:49.389Z,13.04
2017-09-27T01:34:49.586Z,12.98
2017-09-27T01:35:49.411Z,13.01
2017-09-27T01:36:49.600Z,13.08
2017-09-27T01:37:49.437Z,13.04
2017-09-27T01:38:49.616Z,13.11
2017-09-27T01:39:49.462Z,13.11
2017-09-27T01:40:49.626Z,13.15
2017-09-27T01:41:49.485Z,13.11
2017-09-27T01:42:49.641Z,13.11
2017-09-27T01:43:49.504Z,13.05
2017-09-27T01:44:49.654Z,13.09
2017-09-27T01:45:49.527Z,13.04
2017-09-27T01:46:49.666Z,13.11
2017-09-27T01:47:49.549Z,13.00
2017-09-27T01:48:49.681Z,13.05
2017-09-27T01:49:49.574Z,13.00
2017-09-27T01:50:49.695Z,13.00
2017-09-27T01:51:49.597Z,13.04
2017-09-27T01:52:49.809Z,13.05
2017-09-27T01:53:49.611Z,12.97
2017-09-27T01:54:49.821Z,13.11
2017-09-27T01:55:49.634Z,12.97
2017-09-27T01:56:49.837Z,13.05
2017-09-27T01:57:49.657Z,13.05
2017-09-27T01:58:49.849Z,13.04
2017-09-27T01:59:49.708Z,12.98
2017-09-27T02:00:49.863Z,13.11
2017-09-27T02:01:49.700Z,13.05
2017-09-27T02:02:49.876Z,12.97
2017-09-27T02:03:49.723Z,13.09
2017-09-27T02:04:49.889Z,12.98
2017-09-27T02:05:49.744Z,13.11
2017-09-27T02:06:49.902Z,12.97
2017-09-27T02:07:49.765Z,12.97
2017-09-27T02:08:49.915Z,12.97
2017-09-27T02:09:49.785Z,12.97
2017-09-27T02:10:49.930Z,13.05
2017-09-27T02:11:49.812Z,12.97
2017-09-27T02:12:49.943Z,12.95
2017-09-27T02:13:49.828Z,12.97
2017-09-27T02:14:50.058Z,12.97
2017-09-27T02:15:49.852Z,13.00
2017-09-27T02:16:50.078Z,12.95
2017-09-27T02:17:49.873Z,13.04
2017-09-27T02:18:49.986Z,13.01
2017-09-27T02:19:49.894Z,12.98
2017-09-27T02:20:50.000Z,13.05
2017-09-27T02:21:49.912Z,13.00
2017-09-27T02:22:50.011Z,13.00
2017-09-27T02:23:49.940Z,12.97
2017-09-27T02:24:50.026Z,12.97
2017-09-27T02:25:49.960Z,13.00
2017-09-27T02:26:50.043Z,12.95
2017-09-27T02:27:49.981Z,13.00
2017-09-27T02:28:50.054Z,12.90
2017-09-27T02:29:50.002Z,13.00
2017-09-27T02:30:50.068Z,12.98
2017-09-27T02:31:50.025Z,12.87
2017-09-27T02:32:50.084Z,12.94
2017-09-27T02:33:50.048Z,13.01
2017-09-27T02:34:50.098Z,12.93
2017-09-27T02:35:50.067Z,12.97
2017-09-27T02:36:54.812Z,12.91
2017-09-27T02:37:50.086Z,12.90
2017-09-27T02:38:50.217Z,12.94
2017-09-27T02:39:50.111Z,12.95
2017-09-27T02:40:51.152Z,12.91
2017-09-27T02:41:50.137Z,12.95
2017-09-27T02:42:50.245Z,12.91
2017-09-27T02:43:50.154Z,12.94
2017-09-27T02:44:50.258Z,12.90
2017-09-27T02:45:50.173Z,12.95
2017-09-27T02:46:50.271Z,12.94
2017-09-27T02:47:50.199Z,12.95
2017-09-27T02:48:50.284Z,12.98
2017-09-27T02:49:50.221Z,12.98
2017-09-27T02:50:50.299Z,12.95
2017-09-27T02:51:50.241Z,12.90
2017-09-27T02:52:50.311Z,13.00
2017-09-27T02:53:50.263Z,12.95
2017-09-27T02:54:50.326Z,12.91
2017-09-27T02:55:50.288Z,12.91
2017-09-27T02:56:50.342Z,12.93
2017-09-27T02:57:50.305Z,13.00
2017-09-27T02:58:50.359Z,12.91
2017-09-27T02:59:50.324Z,12.94
2017-09-27T03:00:50.371Z,12.94
2017-09-27T03:01:50.348Z,12.94
2017-09-27T03:02:50.483Z,12.94
2017-09-27T03:03:50.372Z,12.93
2017-09-27T03:04:50.500Z,12.98
2017-09-27T03:05:50.388Z,12.87
2017-09-27T03:06:50.515Z,12.90
2017-09-27T03:07:50.415Z,12.94
2017-09-27T03:08:50.523Z,12.87
2017-09-27T03:09:50.429Z,12.90
2017-09-27T03:10:50.543Z,12.85
2017-09-27T03:11:50.465Z,12.91
2017-09-27T03:12:50.556Z,12.91
2017-09-27T03:13:50.473Z,12.91
2017-09-27T03:14:50.563Z,12.91
2017-09-27T03:15:50.496Z,12.91
2017-09-27T03:16:50.581Z,12.87
2017-09-27T03:17:50.518Z,12.91
2017-09-27T03:18:50.590Z,12.86
2017-09-27T03:19:50.542Z,12.87
2017-09-27T03:20:50.601Z,12.90
2017-09-27T03:21:50.561Z,12.86
2017-09-27T03:22:50.622Z,12.87
2017-09-27T03:23:50.586Z,12.86
2017-09-27T03:24:50.635Z,12.87
2017-09-27T03:25:50.601Z,12.83
2017-09-27T03:26:50.749Z,12.85
2017-09-27T03:27:50.626Z,12.91
2017-09-27T03:28:50.766Z,12.90
2017-09-27T03:29:50.644Z,12.85
2017-09-27T03:30:50.771Z,12.87
2017-09-27T03:31:50.666Z,12.87
2017-09-27T03:32:50.790Z,12.79
2017-09-27T03:33:50.695Z,12.87
2017-09-27T03:34:50.803Z,12.83
2017-09-27T03:35:50.708Z,12.87
2017-09-27T03:36:50.819Z,12.85
2017-09-27T03:37:50.727Z,12.85
2017-09-27T03:38:50.830Z,12.87
2017-09-27T03:39:50.750Z,12.82
2017-09-27T03:40:50.840Z,12.90
2017-09-27T03:41:50.775Z,12.87
2017-09-27T03:42:50.860Z,12.83
2017-09-27T03:43:50.797Z,12.82
2017-09-27T03:44:50.869Z,12.87
2017-09-27T03:45:50.817Z,12.82
2017-09-27T03:46:50.882Z,12.83
2017-09-27T03:47:50.836Z,12.85
2017-09-27T03:48:50.897Z,12.85
2017-09-27T03:49:50.855Z,12.76
2017-09-27T03:50:51.014Z,12.87
2017-09-27T03:51:50.879Z,12.95
2017-09-27T03:52:51.027Z,12.87
2017-09-27T03:53:50.895Z,12.85
2017-09-27T03:54:51.043Z,12.91
2017-09-27T03:55:50.921Z,12.91
2017-09-27T03:56:51.056Z,12.83
2017-09-27T03:57:50.939Z,12.80
2017-09-27T03:58:51.069Z,12.79
2017-09-27T03:59:50.966Z,12.83
2017-09-27T04:00:51.082Z,12.82
2017-09-27T04:01:50.981Z,12.79
2017-09-27T04:02:51.095Z,12.83
2017-09-27T04:03:51.001Z,12.83
2017-09-27T04:04:51.108Z,12.90
2017-09-27T04:05:51.024Z,12.79
2017-09-27T04:06:51.121Z,12.85
2017-09-27T04:07:51.049Z,12.79
2017-09-27T04:08:51.137Z,12.80
2017-09-27T04:09:51.074Z,12.76
2017-09-27T04:10:51.150Z,12.78
2017-09-27T04:11:51.086Z,12.80
2017-09-27T04:12:51.162Z,12.80
2017-09-27T04:13:51.109Z,12.82
2017-09-27T04:14:51.178Z,12.83
2017-09-27T04:15:51.131Z,12.86
2017-09-27T04:16:51.292Z,12.78
2017-09-27T04:17:51.151Z,12.79
2017-09-27T04:18:51.302Z,12.80
2017-09-27T04:19:51.175Z,12.83
2017-09-27T04:20:51.317Z,12.80
2017-09-27T04:21:51.193Z,12.80
2017-09-27T04:22:51.330Z,12.79
2017-09-27T04:23:51.215Z,12.75
2017-09-27T04:24:51.343Z,12.75
2017-09-27T04:25:51.275Z,12.80
2017-09-27T04:26:51.356Z,12.76
2017-09-27T04:27:51.255Z,12.76
2017-09-27T04:28:51.371Z,12.76
2017-09-27T04:29:51.277Z,12.78
2017-09-27T04:30:51.387Z,12.75
2017-09-27T04:31:51.300Z,12.70
2017-09-27T04:32:51.399Z,12.78
2017-09-27T04:33:51.323Z,12.78
2017-09-27T04:34:51.416Z,12.78
2017-09-27T04:35:51.343Z,12.73
2017-09-27T04:36:51.426Z,12.72
2017-09-27T04:37:51.362Z,12.73
2017-09-27T04:38:51.440Z,12.72
2017-09-27T04:39:51.388Z,12.75
2017-09-27T04:40:51.559Z,12.68
2017-09-27T04:41:51.402Z,12.72
2017-09-27T04:42:51.576Z,12.68
2017-09-27T04:43:51.424Z,12.64
2017-09-27T04:44:51.588Z,12.73
2017-09-27T04:45:51.442Z,12.68
2017-09-27T04:46:51.553Z,12.67
2017-09-27T04:47:51.466Z,12.67
2017-09-27T04:49:02.419Z,12.67
2017-09-27T04:49:51.486Z,12.67
2017-09-27T04:50:52.605Z,12.64
2017-09-27T04:51:51.507Z,12.61
2017-09-27T04:52:52.616Z,12.64
2017-09-27T04:53:51.524Z,12.64
2017-09-27T04:54:51.609Z,12.67
2017-09-27T04:55:51.549Z,12.67
2017-09-27T04:56:51.620Z,12.65
2017-09-27T04:57:51.571Z,12.68
2017-09-27T04:58:51.631Z,12.65
2017-09-27T04:59:51.594Z,12.60
2017-09-27T05:00:51.646Z,12.65
2017-09-27T05:01:51.612Z,12.70
2017-09-27T05:02:52.686Z,12.62
2017-09-27T05:03:51.631Z,12.68
2017-09-27T05:04:51.675Z,12.58
2017-09-27T05:05:51.653Z,12.65
2017-09-27T05:06:51.689Z,12.65
2017-09-27T05:07:51.671Z,12.70
2017-09-27T05:08:51.802Z,12.64
2017-09-27T05:09:51.698Z,12.64
2017-09-27T05:10:51.819Z,12.62
2017-09-27T05:11:51.722Z,12.64
2017-09-27T05:12:51.834Z,12.67
2017-09-27T05:13:51.742Z,12.62
2017-09-27T05:14:51.847Z,12.62
2017-09-27T05:15:51.758Z,12.61
2017-09-27T05:16:51.861Z,12.64
2017-09-27T05:17:51.777Z,12.64
2017-09-27T05:18:51.789Z,12.70
2017-09-27T05:19:51.802Z,12.64
2017-09-27T05:20:51.806Z,12.65
2017-09-27T05:21:51.821Z,12.62
2017-09-27T05:22:51.827Z,12.64
2017-09-27T05:23:51.840Z,12.65
2017-09-27T05:24:51.852Z,12.65
2017-09-27T05:25:51.855Z,12.65
2017-09-27T05:26:51.868Z,12.64
2017-09-27T05:27:51.879Z,12.65
2017-09-27T05:28:51.894Z,12.65
2017-09-27T05:29:51.902Z,12.68
2017-09-27T05:30:51.913Z,12.65
2017-09-27T05:31:51.919Z,12.72
2017-09-27T05:32:51.933Z,12.65
2017-09-27T05:33:51.940Z,12.67
2017-09-27T05:34:51.953Z,12.72
2017-09-27T05:35:51.958Z,12.65
2017-09-27T05:36:51.975Z,12.68
2017-09-27T05:37:52.102Z,12.62
2017-09-27T05:38:51.991Z,12.73
2017-09-27T05:39:53.473Z,12.68
2017-09-27T05:40:52.024Z,12.65
2017-09-27T05:41:52.136Z,12.76
2017-09-27T05:42:52.032Z,12.72
2017-09-27T05:43:52.142Z,12.70
2017-09-27T05:44:52.056Z,12.75
2017-09-27T05:45:52.160Z,12.70
2017-09-27T05:46:52.077Z,12.73
2017-09-27T05:47:52.170Z,12.73
2017-09-27T05:48:52.096Z,12.78
2017-09-27T05:49:52.184Z,12.76
2017-09-27T05:50:52.115Z,12.75
2017-09-27T05:51:52.124Z,12.76
2017-09-27T05:52:52.136Z,12.73
2017-09-27T05:53:52.149Z,12.85
2017-09-27T05:54:52.157Z,12.80
2017-09-27T05:55:52.169Z,12.78
2017-09-27T05:56:52.180Z,12.82
2017-09-27T05:57:52.189Z,12.72
2017-09-27T05:58:52.243Z,12.79
2017-09-27T05:59:52.212Z,12.78
2017-09-27T06:00:52.216Z,12.79
2017-09-27T06:01:52.231Z,12.76
2017-09-27T06:02:52.256Z,12.83
2017-09-27T06:03:52.248Z,12.80
2017-09-27T06:04:52.259Z,12.78
2017-09-27T06:05:52.269Z,12.79
2017-09-27T06:06:52.282Z,12.78
2017-09-27T06:07:52.289Z,12.80
2017-09-27T06:08:52.302Z,12.83
2017-09-27T06:09:52.310Z,12.82
2017-09-27T06:10:52.324Z,12.76
2017-09-27T06:11:52.331Z,12.79
2017-09-27T06:12:52.337Z,12.80
2017-09-27T06:13:52.353Z,12.76
2017-09-27T06:14:52.361Z,12.78
2017-09-27T06:15:52.368Z,12.83
2017-09-27T06:16:52.390Z,12.76
2017-09-27T06:17:52.395Z,12.72
2017-09-27T06:18:52.401Z,12.78
2017-09-27T06:19:52.409Z,12.85
2017-09-27T06:20:52.419Z,12.86
2017-09-27T06:21:52.431Z,12.87
2017-09-27T06:22:52.438Z,12.80
2017-09-27T06:23:53.325Z,12.85
2017-09-27T06:24:52.538Z,12.90
2017-09-27T06:25:52.472Z,12.75
2017-09-27T06:26:52.482Z,12.87
2017-09-27T06:27:52.492Z,12.87
2017-09-27T06:28:52.501Z,12.90
2017-09-27T06:29:52.513Z,12.90
2017-09-27T06:30:52.524Z,12.90
2017-09-27T06:31:52.675Z,12.90
2017-09-27T06:32:52.547Z,12.86
2017-09-27T06:33:52.689Z,12.98
2017-09-27T06:34:52.563Z,12.94
2017-09-27T06:35:53.728Z,13.04
2017-09-27T06:36:52.584Z,12.97
2017-09-27T06:37:52.591Z,13.11
2017-09-27T06:38:52.599Z,13.04
2017-09-27T06:39:52.612Z,13.13
2017-09-27T06:40:52.626Z,13.13
2017-09-27T06:41:52.745Z,13.13
2017-09-27T06:42:52.650Z,13.23
2017-09-27T06:43:52.759Z,13.18
2017-09-27T06:44:52.668Z,13.23
2017-09-27T06:45:52.769Z,13.25
2017-09-27T06:46:52.705Z,13.23
2017-09-27T06:47:52.694Z,13.23
2017-09-27T06:48:52.707Z,13.28
2017-09-27T06:49:52.716Z,13.27
2017-09-27T06:50:52.726Z,13.31
2017-09-27T06:51:52.735Z,13.41
2017-09-27T06:52:52.747Z,13.39
2017-09-27T06:53:52.759Z,13.39
2017-09-27T06:54:52.765Z,13.39
2017-09-27T06:55:52.810Z,13.39
2017-09-27T06:56:52.788Z,13.41
2017-09-27T06:57:52.793Z,13.50
2017-09-27T06:58:52.810Z,13.49
2017-09-27T07:00:04.391Z,13.52
2017-09-27T07:00:52.827Z,13.44
2017-09-27T07:01:52.835Z,13.53
2017-09-27T07:02:53.965Z,13.46
2017-09-27T07:03:52.855Z,13.50
2017-09-27T07:04:52.865Z,13.49
2017-09-27T07:05:52.880Z,13.44
2017-09-27T07:06:53.994Z,13.50
2017-09-27T07:07:52.899Z,13.59
2017-09-27T07:08:52.990Z,13.57
2017-09-27T07:09:52.915Z,13.59
2017-09-27T07:10:52.998Z,13.59
2017-09-27T07:11:52.940Z,13.59
2017-09-27T07:12:53.013Z,13.56
2017-09-27T07:13:52.985Z,13.59
2017-09-27T07:14:53.028Z,13.56
2017-09-27T07:15:52.995Z,13.57
2017-09-27T07:16:53.022Z,13.53
2017-09-27T07:17:53.007Z,13.56
2017-09-27T07:18:53.016Z,13.56
2017-09-27T07:19:53.161Z,13.56
2017-09-27T07:20:53.031Z,13.57
2017-09-27T07:21:53.037Z,13.56
2017-09-27T07:22:53.081Z,13.59
2017-09-27T07:23:53.057Z,13.65
2017-09-27T07:24:53.197Z,13.59
2017-09-27T07:25:53.078Z,13.52
2017-09-27T07:26:53.209Z,13.67
2017-09-27T07:27:53.096Z,13.70
2017-09-27T07:28:53.224Z,13.78
2017-09-27T07:29:53.117Z,13.85
2017-09-27T07:30:53.131Z,13.90
2017-09-27T07:31:53.242Z,13.87
2017-09-27T07:32:53.157Z,13.92
2017-09-27T07:33:53.257Z,13.97
2017-09-27T07:34:53.168Z,14.00
2017-09-27T07:35:53.270Z,13.99
2017-09-27T07:36:53.189Z,14.04
2017-09-27T07:37:53.282Z,14.07
2017-09-27T07:38:53.210Z,14.11
2017-09-27T07:39:53.297Z,14.15
2017-09-27T07:40:53.232Z,14.10
2017-09-27T07:41:53.310Z,14.10
2017-09-27T07:42:53.253Z,14.03
2017-09-27T07:43:53.323Z,14.08
2017-09-27T07:44:53.271Z,14.04
2017-09-27T07:45:53.335Z,14.00
2017-09-27T07:46:53.301Z,13.89
2017-09-27T07:47:53.351Z,13.97
2017-09-27T07:48:53.311Z,14.03
2017-09-27T07:49:53.370Z,13.90
2017-09-27T07:50:53.329Z,13.92
2017-09-27T07:51:53.378Z,14.07
2017-09-27T07:52:53.350Z,13.93
2017-09-27T07:53:53.495Z,13.99
2017-09-27T07:54:53.370Z,13.96
2017-09-27T07:55:53.508Z,13.95
2017-09-27T07:56:53.394Z,14.00
2017-09-27T07:57:53.401Z,13.95
2017-09-27T07:58:53.539Z,14.11
2017-09-27T07:59:53.417Z,14.05
2017-09-27T08:00:53.548Z,14.14
2017-09-27T08:01:53.438Z,14.11
2017-09-27T08:02:53.556Z,14.14
2017-09-27T08:03:53.465Z,14.23
2017-09-27T08:04:53.570Z,14.17
2017-09-27T08:05:53.476Z,14.32
2017-09-27T08:06:53.583Z,14.33
2017-09-27T08:07:53.499Z,14.43
2017-09-27T08:08:53.598Z,14.47
2017-09-27T08:09:53.521Z,14.47
2017-09-27T08:10:53.553Z,14.50
2017-09-27T08:11:53.618Z,14.54
2017-09-27T08:12:53.553Z,14.58
2017-09-27T08:13:53.632Z,14.66
2017-09-27T08:14:53.568Z,14.70
2017-09-27T08:15:54.669Z,14.66
2017-09-27T08:16:53.590Z,14.70
2017-09-27T08:17:53.657Z,14.78
2017-09-27T08:18:53.616Z,14.81
2017-09-27T08:19:53.675Z,14.78
2017-09-27T08:20:53.629Z,14.86
2017-09-27T08:21:53.789Z,14.73
2017-09-27T08:22:53.653Z,14.85
2017-09-27T08:23:53.802Z,14.97
2017-09-27T08:24:53.673Z,15.02
2017-09-27T08:25:53.814Z,14.94
2017-09-27T08:26:53.693Z,14.99
2017-09-27T08:27:53.828Z,15.06
2017-09-27T08:28:53.715Z,15.02
2017-09-27T08:29:53.841Z,15.06
2017-09-27T08:30:53.729Z,15.14
2017-09-27T08:31:53.855Z,15.09
2017-09-27T08:32:53.749Z,15.25
2017-09-27T08:33:53.870Z,15.28
2017-09-27T08:34:53.770Z,15.39
2017-09-27T08:35:53.883Z,15.47
2017-09-27T08:36:53.795Z,15.44
2017-09-27T08:37:53.894Z,15.49
2017-09-27T08:38:53.817Z,15.54
2017-09-27T08:39:53.911Z,15.59
2017-09-27T08:40:53.832Z,15.58
2017-09-27T08:41:53.922Z,15.65
2017-09-27T08:42:53.855Z,15.67
2017-09-27T08:43:53.934Z,15.65
2017-09-27T08:44:53.876Z,15.75
2017-09-27T08:45:53.950Z,15.67
2017-09-27T08:46:53.894Z,15.77
2017-09-27T08:47:53.962Z,15.80
2017-09-27T08:48:53.916Z,15.82
2017-09-27T08:49:54.077Z,15.84
2017-09-27T08:50:53.936Z,15.83
2017-09-27T08:51:54.093Z,15.97
2017-09-27T08:52:53.953Z,15.94
2017-09-27T08:53:54.105Z,15.95
2017-09-27T08:54:53.977Z,15.94
2017-09-27T08:55:54.121Z,15.98
2017-09-27T08:56:53.998Z,15.92
2017-09-27T08:57:54.136Z,15.92
2017-09-27T08:58:54.016Z,15.98
2017-09-27T08:59:54.028Z,15.91
2017-09-27T09:00:54.038Z,15.83
2017-09-27T09:01:55.186Z,15.80
2017-09-27T09:02:54.055Z,15.84
2017-09-27T09:03:55.220Z,15.72
2017-09-27T09:04:54.079Z,15.76
2017-09-27T09:05:54.247Z,15.80
2017-09-27T09:06:54.112Z,15.82
2017-09-27T09:07:55.182Z,15.82
2017-09-27T09:08:54.121Z,15.73
2017-09-27T09:09:56.219Z,15.80
2017-09-27T09:10:54.145Z,15.70
2017-09-27T09:11:54.193Z,15.80
2017-09-27T09:12:54.163Z,15.83
2017-09-27T09:13:54.203Z,15.94
2017-09-27T09:14:54.201Z,16.00
2017-09-27T09:15:54.315Z,16.09
2017-09-27T09:16:54.204Z,16.15
2017-09-27T09:17:58.937Z,16.13
2017-09-27T09:18:54.233Z,16.12
2017-09-27T09:19:54.345Z,16.02
2017-09-27T09:20:54.248Z,16.05
2017-09-27T09:21:54.356Z,16.09
2017-09-27T09:22:54.272Z,16.08
2017-09-27T09:23:54.369Z,16.01
2017-09-27T09:24:54.301Z,16.00
2017-09-27T09:25:54.310Z,15.95
2017-09-27T09:26:54.391Z,15.98
2017-09-27T09:27:54.323Z,15.95
2017-09-27T09:28:54.402Z,15.92
2017-09-27T09:29:54.355Z,15.94
2017-09-27T09:30:54.420Z,16.00
2017-09-27T09:31:54.366Z,16.00
2017-09-27T09:32:54.431Z,16.01
2017-09-27T09:33:54.393Z,16.02
2017-09-27T09:34:54.452Z,16.08
2017-09-27T09:35:54.411Z,16.15
2017-09-27T09:36:54.462Z,16.16
2017-09-27T09:37:54.432Z,16.20
2017-09-27T09:38:54.442Z,16.31
2017-09-27T09:39:54.583Z,16.16
2017-09-27T09:40:54.468Z,16.15
2017-09-27T09:41:54.597Z,16.12
2017-09-27T09:42:54.487Z,16.10
2017-09-27T09:43:54.608Z,16.13
2017-09-27T09:44:54.514Z,16.15
2017-09-27T09:45:54.620Z,16.16
2017-09-27T09:46:54.543Z,16.16
2017-09-27T09:47:54.636Z,16.17
2017-09-27T09:48:54.554Z,16.16
2017-09-27T09:49:54.565Z,16.26
2017-09-27T09:50:54.652Z,16.26
2017-09-27T09:51:54.588Z,16.39
2017-09-27T09:52:54.677Z,16.41
2017-09-27T09:53:54.614Z,16.38
2017-09-27T09:54:54.681Z,16.43
2017-09-27T09:55:54.642Z,16.39
2017-09-27T09:56:54.644Z,16.42
2017-09-27T09:57:54.704Z,16.31
2017-09-27T09:58:54.665Z,16.47
2017-09-27T09:59:54.817Z,16.42
2017-09-27T10:00:54.695Z,16.43
2017-09-27T10:01:54.830Z,16.58
2017-09-27T10:02:54.709Z,16.68
2017-09-27T10:03:54.844Z,16.69
2017-09-27T10:04:54.734Z,16.83
2017-09-27T10:05:54.859Z,17.01
2017-09-27T10:06:54.754Z,16.81
2017-09-27T10:07:55.898Z,17.08
2017-09-27T10:08:54.775Z,17.11
2017-09-27T10:09:54.886Z,17.19
2017-09-27T10:10:55.386Z,17.31
2017-09-27T10:11:54.906Z,17.33
2017-09-27T10:12:54.829Z,17.33
2017-09-27T10:13:54.913Z,17.51
2017-09-27T10:14:54.850Z,17.49
2017-09-27T10:15:54.862Z,17.48
2017-09-27T10:16:54.870Z,17.57
2017-09-27T10:17:54.941Z,17.56
2017-09-27T10:18:54.891Z,17.54
2017-09-27T10:19:54.901Z,17.57
2017-09-27T10:20:54.959Z,17.72
2017-09-27T10:21:54.926Z,17.67
2017-09-27T10:22:55.078Z,17.60
2017-09-27T10:23:54.951Z,17.63
2017-09-27T10:24:55.089Z,17.60
2017-09-27T10:25:54.970Z,17.54
2017-09-27T10:26:56.129Z,17.45
2017-09-27T10:27:54.995Z,17.56
2017-09-27T10:28:55.119Z,17.60
2017-09-27T10:29:55.019Z,17.63
2017-09-27T10:30:55.130Z,17.63
2017-09-27T10:31:55.045Z,17.63
2017-09-27T10:32:55.144Z,17.56
2017-09-27T10:33:55.067Z,17.59
2017-09-27T10:34:55.156Z,17.59
2017-09-27T10:35:55.086Z,17.65
2017-09-27T10:36:55.174Z,17.76
2017-09-27T10:37:55.110Z,17.72
2017-09-27T10:38:55.185Z,17.70
2017-09-27T10:39:55.134Z,17.79
2017-09-27T10:40:55.198Z,17.79
2017-09-27T10:41:55.195Z,17.92
2017-09-27T10:42:55.315Z,17.94
2017-09-27T10:43:55.181Z,17.95
2017-09-27T10:44:55.331Z,18.04
2017-09-27T10:45:55.205Z,18.01
2017-09-27T10:46:55.341Z,18.11
2017-09-27T10:47:55.227Z,18.19
2017-09-27T10:48:55.355Z,18.33
2017-09-27T10:49:55.250Z,18.25
2017-09-27T10:50:55.372Z,18.19
2017-09-27T10:51:55.276Z,18.23
2017-09-27T10:52:55.383Z,18.38
2017-09-27T10:53:55.329Z,18.58
2017-09-27T10:54:55.399Z,18.60
2017-09-27T10:55:55.325Z,18.77
2017-09-27T10:56:55.410Z,18.62
2017-09-27T10:57:55.345Z,18.63
2017-09-27T10:58:55.423Z,18.56
2017-09-27T10:59:55.369Z,18.66
2017-09-27T11:00:55.538Z,18.56
2017-09-27T11:01:55.393Z,18.63
2017-09-27T11:02:55.553Z,18.77
2017-09-27T11:03:55.419Z,18.73
2017-09-27T11:04:55.571Z,18.70
2017-09-27T11:05:55.443Z,18.80
2017-09-27T11:06:55.691Z,18.71
2017-09-27T11:07:55.463Z,18.78
2017-09-27T11:08:55.592Z,18.80
2017-09-27T11:09:55.488Z,18.68
2017-09-27T11:10:55.496Z,18.73
2017-09-27T11:11:55.617Z,18.80
2017-09-27T11:12:55.525Z,18.95
2017-09-27T11:13:55.638Z,19.00
2017-09-27T11:14:55.546Z,19.08
2017-09-27T11:15:55.664Z,19.24
2017-09-27T11:16:55.583Z,19.26
2017-09-27T11:17:55.659Z,19.22
2017-09-27T11:18:55.595Z,19.15
2017-09-27T11:19:55.775Z,19.09
2017-09-27T11:20:55.617Z,19.09
2017-09-27T11:21:55.630Z,19.09
2017-09-27T11:22:55.644Z,19.07
2017-09-27T11:23:55.800Z,19.11
2017-09-27T11:24:55.670Z,19.18
2017-09-27T11:25:55.816Z,19.09
2017-09-27T11:26:55.695Z,19.18
2017-09-27T11:27:56.880Z,19.15
2017-09-27T11:28:55.715Z,19.16
2017-09-27T11:29:55.841Z,19.18
2017-09-27T11:30:55.746Z,19.27
2017-09-27T11:31:55.794Z,19.19
2017-09-27T11:32:55.764Z,19.21
2017-09-27T11:33:55.808Z,19.24
2017-09-27T11:34:55.789Z,19.29
2017-09-27T11:35:55.821Z,19.30
2017-09-27T11:36:55.812Z,19.39
2017-09-27T11:37:55.937Z,19.37
2017-09-27T11:38:55.837Z,19.44
2017-09-27T11:39:55.948Z,19.56
2017-09-27T11:40:55.861Z,19.41
2017-09-27T11:41:55.882Z,19.39
2017-09-27T11:42:55.887Z,19.52
2017-09-27T11:43:55.989Z,19.55
2017-09-27T11:44:55.915Z,19.49
2017-09-27T11:45:55.923Z,19.54
2017-09-27T11:46:55.993Z,19.51
2017-09-27T11:47:55.950Z,19.62
2017-09-27T11:48:56.008Z,19.62
2017-09-27T11:49:55.976Z,19.74
2017-09-27T11:50:55.987Z,19.86
2017-09-27T11:51:55.995Z,19.88
2017-09-27T11:52:56.033Z,19.92
2017-09-27T11:53:56.022Z,19.99
2017-09-27T11:54:56.149Z,20.03
2017-09-27T11:55:56.049Z,20.22
2017-09-27T11:56:56.160Z,20.40
2017-09-27T11:57:56.072Z,20.51
2017-09-27T11:58:57.197Z,20.62
2017-09-27T11:59:56.924Z,20.63
2017-09-27T12:00:56.110Z,20.67
2017-09-27T12:01:56.121Z,20.58
2017-09-27T12:02:56.200Z,20.55
2017-09-27T12:03:56.150Z,20.41
2017-09-27T12:04:56.212Z,20.43
2017-09-27T12:05:56.170Z,20.51
2017-09-27T12:06:56.230Z,20.50
2017-09-27T12:07:56.201Z,20.62
2017-09-27T12:08:56.237Z,20.67
2017-09-27T12:09:56.219Z,20.77
2017-09-27T12:10:56.236Z,20.90
2017-09-27T12:11:56.249Z,20.93
2017-09-27T12:12:56.368Z,21.00
2017-09-27T12:13:56.272Z,21.09
2017-09-27T12:14:56.283Z,21.21
2017-09-27T12:15:56.357Z,21.37
2017-09-27T12:16:56.309Z,21.43
2017-09-27T12:17:56.472Z,21.33
2017-09-27T12:18:56.333Z,21.40
2017-09-27T12:19:56.488Z,21.33
2017-09-27T12:20:56.362Z,21.33
2017-09-27T12:21:56.499Z,21.39
2017-09-27T12:22:56.386Z,21.30
2017-09-27T12:23:56.511Z,21.25
2017-09-27T12:24:56.415Z,21.25
2017-09-27T12:25:56.526Z,21.09
2017-09-27T12:26:56.435Z,21.07
2017-09-27T12:27:56.541Z,21.00
2017-09-27T12:28:56.462Z,20.96
2017-09-27T12:29:56.656Z,20.81
2017-09-27T12:30:56.488Z,20.75
2017-09-27T12:31:56.565Z,20.66
2017-09-27T12:32:56.513Z,20.44
2017-09-27T12:33:56.681Z,20.48
2017-09-27T12:34:56.535Z,20.51
2017-09-27T12:35:56.615Z,20.40
2017-09-27T12:36:56.560Z,20.47
2017-09-27T12:37:56.629Z,20.51
2017-09-27T12:38:56.587Z,20.67
2017-09-27T12:39:56.643Z,20.82
2017-09-27T12:40:56.613Z,20.96
2017-09-27T12:41:56.657Z,21.02
2017-09-27T12:42:56.641Z,21.25
2017-09-27T12:43:56.669Z,21.24
2017-09-27T12:44:56.667Z,21.37
2017-09-27T12:45:56.786Z,21.52
2017-09-27T12:46:56.691Z,21.67
2017-09-27T12:47:56.797Z,21.77
2017-09-27T12:48:56.714Z,21.95
2017-09-27T12:49:56.812Z,22.02
2017-09-27T12:50:56.749Z,22.14
2017-09-27T12:51:56.829Z,21.99
2017-09-27T12:52:56.773Z,21.98